Peter R. Cresswell — VCBZ — position and weather

sailwx.info

Track history (hours):
 
Tides and Currents Weather Stations Pressure Air Temp Water Temp Dewpoint Dewpoint Depression Visibility Wind Speed Wind Dir Waves Ship Positions

Peter R. Cresswell

ex Algowest

Last reported at 2015-Aug-03 12:33 UTC. Time now 2015-Aug-04 15:55 UTC.
Position N 46°16' W 083°47'.

Length 219.2 m; beam 23.2 m; draft 8.7 m.

Type: Ship. MMSI: 316001697.

Date/timePositionNaut miles runAvg speedWind from/ knotsBaromVisibWave heightAir tempDewpointWater temp
2015-Aug-03 12:33N 46°16' W 083°47'0 0.0
2015-Aug-03 11:34N 46°16' W 083°47'0 0.2
2015-Aug-03 10:31N 46°16' W 083°46'34 8.3
2015-Aug-03 06:28N 45°51' W 083°14'  
2015-Jul-30 06:31N 42°28' W 080°10'2211.1
2015-Jul-30 04:34N 42°39' W 079°44'1111.3
2015-Jul-30 03:34N 42°45' W 079°30'1111.2
2015-Jul-30 02:33N 42°50' W 079°17'4 3.9
2015-Jul-30 01:31N 42°54' W 079°15'7 1.7
2015-Jul-29 21:33N 43°01' W 079°13'5 5.4
2015-Jul-29 20:33N 43°06' W 079°12'1 1.5
2015-Jul-29 19:34N 43°07' W 079°12'1 0.5
2015-Jul-29 18:34N 43°08' W 079°12'0 0.2
2015-Jul-29 17:33N 43°08' W 079°12'0 0.4
2015-Jul-29 16:34N 43°08' W 079°12'1 0.9
2015-Jul-29 15:34N 43°09' W 079°12'2 2.2
2015-Jul-29 14:34N 43°12' W 079°12'1 0.6
2015-Jul-29 13:34N 43°12' W 079°12'1 1.1
2015-Jul-29 12:33N 43°13' W 079°13'1 0.9
2015-Jul-29 11:34N 43°14' W 079°13'8 7.8
2015-Jul-29 10:33N 43°21' W 079°08'1110.5
2015-Jul-29 09:33N 43°26' W 078°55'16 7.6
2015-Jul-29 07:30N 43°30' W 078°35'8 5.7
2015-Jul-29 06:09N 43°37' W 078°29'4 7.4
2015-Jul-29 05:33N 43°41' W 078°29'9 7.2
2015-Jul-29 04:18N 43°50' W 078°32'6 8.1
2015-Jul-29 03:31N 43°52' W 078°41'0 0.0
2015-Jul-28 19:19N 43°52' W 078°41'0 0.1
2015-Jul-28 18:33N 43°52' W 078°41'0 0.0
2015-Jul-28 17:33N 43°52' W 078°41'0 0.0
2015-Jul-28 16:33N 43°52' W 078°41'0 0.0
2015-Jul-28 14:33N 43°52' W 078°41'0 0.0
2015-Jul-28 11:30N 43°52' W 078°41'0 0.0
2015-Jul-28 10:28N 43°52' W 078°41'0 0.0
2015-Jul-28 09:27N 43°52' W 078°41'0 0.0
2015-Jul-28 08:15N 43°52' W 078°41'0 0.0
2015-Jul-28 04:13N 43°52' W 078°41'0 0.0
2015-Jul-27 20:33N 43°52' W 078°41'0 0.0
2015-Jul-27 19:33N 43°52' W 078°41'9 4.3
2015-Jul-27 17:33N 43°47' W 078°32'1010.2
2015-Jul-27 16:33N 43°39' W 078°42'1212.3
2015-Jul-27 15:33N 43°34' W 078°58'1212.4
2015-Jul-27 14:33N 43°29' W 079°13'1212.4
2015-Jul-27 13:33N 43°24' W 079°29'1212.0
2015-Jul-27 12:33N 43°19' W 079°44'4 3.8
2015-Jul-27 11:33N 43°16' W 079°48'0 0.0
2015-Jul-27 10:33N 43°16' W 079°48'0 0.0
2015-Jul-27 09:33N 43°16' W 079°48'0 0.0
2015-Jul-27 08:33N 43°16' W 079°48'0 0.0
2015-Jul-27 07:14N 43°16' W 079°48'0 0.0
2015-Jul-27 06:33N 43°16' W 079°48'0 0.0
2015-Jul-27 05:29N 43°16' W 079°48'0 0.0
2015-Jul-27 04:33N 43°16' W 079°48'0 0.0
2015-Jul-27 03:23N 43°16' W 079°48'0 0.0
2015-Jul-27 02:33N 43°16' W 079°48'0 0.0
2015-Jul-27 01:23N 43°16' W 079°48'0 0.0
2015-Jul-27 00:34N 43°16' W 079°48'0 0.1
2015-Jul-26 23:33N 43°17' W 079°48'3 2.5
2015-Jul-26 22:31N 43°19' W 079°46'1111.5
2015-Jul-26 21:33N 43°17' W 079°31'1211.6
2015-Jul-26 20:33N 43°16' W 079°15'3 3.3
2015-Jul-26 19:34N 43°13' W 079°13'1 1.4
2015-Jul-26 18:33N 43°12' W 079°12'1 0.7
2015-Jul-26 17:34N 43°11' W 079°12'2 1.8
2015-Jul-26 16:34N 43°09' W 079°12'1 1.1
2015-Jul-26 15:33N 43°08' W 079°12'0 0.2
2015-Jul-26 14:33N 43°08' W 079°12'1 0.6
2015-Jul-26 13:34N 43°07' W 079°12'1 1.5
2015-Jul-26 12:33N 43°06' W 079°12'12 6.0
2015-Jul-26 10:32N 42°54' W 079°15'2 1.8
2015-Jul-26 09:33N 42°52' W 079°15'10 8.3
2015-Jul-26 08:21N 42°45' W 079°24'911.8
2015-Jul-26 07:33N 42°39' W 079°35'1211.8
2015-Jul-26 06:33N 42°32' W 079°48'269 6.9
2015-Jul-24 15:29N 45°56' W 083°52'19 8.9
2015-Jul-24 13:19N 46°12' W 084°08'  
Track history (hours):
 
Tides and Currents Weather Stations Pressure Air Temp Water Temp Dewpoint Dewpoint Depression Visibility Wind Speed Wind Dir Waves Ship Positions

Peter R. Cresswell

ex Algowest

Last reported at 2015-Aug-03 12:33 UTC. Time now 2015-Aug-04 15:55 UTC.
Position N 46°16' W 083°47'.

Length 219.2 m; beam 23.2 m; draft 8.7 m.

Type: Ship. MMSI: 316001697.

Date/timePositionNaut miles runAvg speedWind from/ knotsBaromVisibWave heightAir tempDewpointWater temp
2015-Aug-03 12:33N 46°16' W 083°47'0 0.0
2015-Aug-03 11:34N 46°16' W 083°47'0 0.2
2015-Aug-03 10:31N 46°16' W 083°46'34 8.3
2015-Aug-03 06:28N 45°51' W 083°14'  
2015-Jul-30 06:31N 42°28' W 080°10'2211.1
2015-Jul-30 04:34N 42°39' W 079°44'1111.3
2015-Jul-30 03:34N 42°45' W 079°30'1111.2
2015-Jul-30 02:33N 42°50' W 079°17'4 3.9
2015-Jul-30 01:31N 42°54' W 079°15'7 1.7
2015-Jul-29 21:33N 43°01' W 079°13'5 5.4
2015-Jul-29 20:33N 43°06' W 079°12'1 1.5
2015-Jul-29 19:34N 43°07' W 079°12'1 0.5
2015-Jul-29 18:34N 43°08' W 079°12'0 0.2
2015-Jul-29 17:33N 43°08' W 079°12'0 0.4
2015-Jul-29 16:34N 43°08' W 079°12'1 0.9
2015-Jul-29 15:34N 43°09' W 079°12'2 2.2
2015-Jul-29 14:34N 43°12' W 079°12'1 0.6
2015-Jul-29 13:34N 43°12' W 079°12'1 1.1
2015-Jul-29 12:33N 43°13' W 079°13'1 0.9
2015-Jul-29 11:34N 43°14' W 079°13'8 7.8
2015-Jul-29 10:33N 43°21' W 079°08'1110.5
2015-Jul-29 09:33N 43°26' W 078°55'16 7.6
2015-Jul-29 07:30N 43°30' W 078°35'8 5.7
2015-Jul-29 06:09N 43°37' W 078°29'4 7.4
2015-Jul-29 05:33N 43°41' W 078°29'9 7.2
2015-Jul-29 04:18N 43°50' W 078°32'6 8.1
2015-Jul-29 03:31N 43°52' W 078°41'0 0.0
2015-Jul-28 19:19N 43°52' W 078°41'0 0.1
2015-Jul-28 18:33N 43°52' W 078°41'0 0.0
2015-Jul-28 17:33N 43°52' W 078°41'0 0.0
2015-Jul-28 16:33N 43°52' W 078°41'0 0.0
2015-Jul-28 14:33N 43°52' W 078°41'0 0.0
2015-Jul-28 11:30N 43°52' W 078°41'0 0.0
2015-Jul-28 10:28N 43°52' W 078°41'0 0.0
2015-Jul-28 09:27N 43°52' W 078°41'0 0.0
2015-Jul-28 08:15N 43°52' W 078°41'0 0.0
2015-Jul-28 04:13N 43°52' W 078°41'0 0.0
2015-Jul-27 20:33N 43°52' W 078°41'0 0.0
2015-Jul-27 19:33N 43°52' W 078°41'9 4.3
2015-Jul-27 17:33N 43°47' W 078°32'1010.2
2015-Jul-27 16:33N 43°39' W 078°42'1212.3
2015-Jul-27 15:33N 43°34' W 078°58'1212.4
2015-Jul-27 14:33N 43°29' W 079°13'1212.4
2015-Jul-27 13:33N 43°24' W 079°29'1212.0
2015-Jul-27 12:33N 43°19' W 079°44'4 3.8
2015-Jul-27 11:33N 43°16' W 079°48'0 0.0
2015-Jul-27 10:33N 43°16' W 079°48'0 0.0
2015-Jul-27 09:33N 43°16' W 079°48'0 0.0
2015-Jul-27 08:33N 43°16' W 079°48'0 0.0
2015-Jul-27 07:14N 43°16' W 079°48'0 0.0
2015-Jul-27 06:33N 43°16' W 079°48'0 0.0
2015-Jul-27 05:29N 43°16' W 079°48'0 0.0
2015-Jul-27 04:33N 43°16' W 079°48'0 0.0
2015-Jul-27 03:23N 43°16' W 079°48'0 0.0
2015-Jul-27 02:33N 43°16' W 079°48'0 0.0
2015-Jul-27 01:23N 43°16' W 079°48'0 0.0
2015-Jul-27 00:34N 43°16' W 079°48'0 0.1
2015-Jul-26 23:33N 43°17' W 079°48'3 2.5
2015-Jul-26 22:31N 43°19' W 079°46'1111.5
2015-Jul-26 21:33N 43°17' W 079°31'1211.6
2015-Jul-26 20:33N 43°16' W 079°15'3 3.3
2015-Jul-26 19:34N 43°13' W 079°13'1 1.4
2015-Jul-26 18:33N 43°12' W 079°12'1 0.7
2015-Jul-26 17:34N 43°11' W 079°12'2 1.8
2015-Jul-26 16:34N 43°09' W 079°12'1 1.1
2015-Jul-26 15:33N 43°08' W 079°12'0 0.2
2015-Jul-26 14:33N 43°08' W 079°12'1 0.6
2015-Jul-26 13:34N 43°07' W 079°12'1 1.5
2015-Jul-26 12:33N 43°06' W 079°12'12 6.0
2015-Jul-26 10:32N 42°54' W 079°15'2 1.8
2015-Jul-26 09:33N 42°52' W 079°15'10 8.3
2015-Jul-26 08:21N 42°45' W 079°24'911.8
2015-Jul-26 07:33N 42°39' W 079°35'1211.8
2015-Jul-26 06:33N 42°32' W 079°48'269 6.9
2015-Jul-24 15:29N 45°56' W 083°52'19 8.9
2015-Jul-24 13:19N 46°12' W 084°08'  

Dump ship's entire track history